In Rescue
 
Open Full Screen Window  High Contrast Mode
October 30, 2020 12:43 AM CDT
Weather Information
Wind Direction
  ---
Wind Speed
  00 kt (0 mph)
Wind Gust
  00 kt (0 mph)
Altimeter
30.17 in
Visibility
10 SM
Temperature
-01° C
30° F
Dewpoint
-05° C
23° F
Humidity
75%
1hr Rain Fall
00.00 in.
24hr Rain Fall
00.00 in.
Sky Condition
Broken @ 8,000 ft
Scattered @ 7,500 ft
Scattered @ 6,000 ft
VFR

METAR KLVN 300543Z AUTO 00000KT 10SM SCT060 SCT075 BKN080 M01/M05 A3017 RMK AO2

FAA Disclaimer: The data displayed is for advisory purposes only and is not to be used for flight planning or operations.